Главная страница
METAR-TAF:

METAR-TAF

Аэропорты :

Николаев, Украина

широта: 47-03-29N, долгота: 031-55-15E, высота над уровнем моря: 56 м

METAR: отсутствует

Время: 01:41 (22:41 UTC)

Прогноз

Эта сводка был подготовлена 32 часа и 39 минут назад, в 14:02 UTC
Прогноз действительный с 09-го 15 UTC до 09-го 24 UTC
Ветер 6 Узел от северный
Видимость 10 км и более
Отдельные облака на высоте 2500 фута, Кучево-дождевые.

TAF: UKON 091402Z 0915/0924 35003MPS 9999 SCT025CB TX10/0915Z TN04/0924Z

Метеонаблюдения и прогнозы для более 4000 аэропортов (сводки METAR и TAF).

Имеющиеся станции представлены на карте желтыми и красными точками.

Чтобы увидеть название станции, наведите на нее мышь.

Затем щелкните, чтобы увидеть метеонаблюдения и метеопрогнозы.

Управление картой: чтобы увеличить масштаб, щелкните зеленые кнопки с черным крестиком; чтобы уменьшить масштаб, щелкните зеленую кнопку с тире; для просмотра соседних карт щелкайте зеленые стрелки.


METAR-TAF: